Time;durP1;ratioP1;P1;durP2;ratioP2;P2;SDS_P1;SDS_P2;PMS_P1;PMS_P2;Temp;Humidity;BMP_temperature;BMP_pressure;BME280_temperature;BME280_humidity;BME280_pressure;Samples;Min_cycle;Max_cycle;Signal;HPM_P1;HPM_P2
2022/11/15 00:01:08;;;;;;;47.43;31.80;;;;;;;8.25;93.58;100237.53;5092953;28;20195;-68
2022/11/15 00:03:35;;;;;;;45.93;29.97;;;;;;;8.23;94.16;100235.03;5092814;28;20278;-68
2022/11/15 00:06:05;;;;;;;46.63;31.20;;;;;;;8.25;94.15;100237.53;5092860;28;20195;-68
2022/11/15 00:08:32;;;;;;;44.93;29.63;;;;;;;8.27;93.80;100235.53;5092990;28;20191;-68
2022/11/15 00:11:00;;;;;;;47.10;29.93;;;;;;;8.30;94.14;100241.34;5093055;28;20249;-68
2022/11/15 00:13:27;;;;;;;44.27;28.07;;;;;;;8.25;94.58;100235.69;5083366;28;20192;-68
2022/11/15 00:15:58;;;;;;;49.37;29.87;;;;;;;8.22;94.09;100238.69;5072927;28;20219;-68
2022/11/15 00:18:24;;;;;;;44.43;27.50;;;;;;;8.23;93.79;100228.91;5072835;28;20228;-68
2022/11/15 00:20:51;;;;;;;40.07;26.90;;;;;;;8.27;94.32;100235.53;5072267;28;20243;-68
2022/11/15 00:23:19;;;;;;;40.40;27.73;;;;;;;8.30;93.57;100240.50;5072163;28;20675;-68
2022/11/15 00:25:46;;;;;;;41.90;29.10;;;;;;;8.24;94.02;100241.13;5072546;28;20195;-68
2022/11/15 00:28:13;;;;;;;43.20;26.83;;;;;;;8.14;93.58;100238.63;5072158;28;20195;-68
2022/11/15 00:30:40;;;;;;;37.60;26.70;;;;;;;8.06;94.34;100235.13;5072151;28;20242;-68
2022/11/15 00:33:07;;;;;;;45.00;28.37;;;;;;;8.09;94.07;100237.47;5072423;28;20199;-68
2022/11/15 00:35:34;;;;;;;43.33;29.60;;;;;;;8.17;95.47;100234.81;5072068;28;20222;-68
2022/11/15 00:38:01;;;;;;;41.33;28.47;;;;;;;8.20;94.83;100231.84;5071842;28;20199;-68
2022/11/15 00:40:29;;;;;;;40.33;27.10;;;;;;;8.24;94.83;100235.84;5072132;28;20196;-68
2022/11/15 00:42:57;;;;;;;43.73;29.00;;;;;;;8.30;94.51;100229.91;5072239;28;20245;-68
2022/11/15 00:45:23;;;;;;;39.07;27.10;;;;;;;8.32;92.87;100227.91;5072312;28;20227;-68
2022/11/15 00:47:51;;;;;;;42.83;26.97;;;;;;;8.36;94.35;100229.25;5071878;28;20203;-68
2022/11/15 00:50:18;;;;;;;40.57;26.03;;;;;;;8.35;92.96;100227.59;5071995;28;20196;-68
2022/11/15 00:52:45;;;;;;;39.57;26.13;;;;;;;8.44;93.36;100224.81;5084389;28;20191;-68
2022/11/15 00:55:15;;;;;;;40.33;26.20;;;;;;;8.50;93.00;100220.66;5091743;28;20275;-68
2022/11/15 00:57:43;;;;;;;44.00;27.57;;;;;;;8.55;93.06;100221.00;5092009;28;20277;-67
2022/11/15 01:00:11;;;;;;;42.97;27.07;;;;;;;8.50;93.17;100213.53;5092660;28;20191;-68
2022/11/15 01:02:37;;;;;;;37.87;25.80;;;;;;;8.45;92.58;100223.00;5091999;28;20719;-68
2022/11/15 01:05:05;;;;;;;45.90;26.63;;;;;;;8.37;93.39;100221.16;5093181;28;20195;-67
2022/11/15 01:07:31;;;;;;;38.90;25.93;;;;;;;8.39;92.65;100219.19;5091916;28;20221;-67
2022/11/15 01:09:58;;;;;;;40.37;27.43;;;;;;;8.43;92.82;100223.16;5091951;28;20655;-68
2022/11/15 01:12:25;;;;;;;39.80;27.10;;;;;;;8.49;93.52;100219.03;5090880;28;20195;-68
2022/11/15 01:14:53;;;;;;;42.60;26.70;;;;;;;8.51;93.04;100217.03;5072760;28;20304;-67
2022/11/15 01:17:20;;;;;;;45.30;26.30;;;;;;;8.45;92.41;100209.75;5071491;28;20768;-67
2022/11/15 01:19:46;;;;;;;39.47;25.63;;;;;;;8.52;93.07;100213.38;5071942;28;20231;-68
2022/11/15 01:22:13;;;;;;;36.10;25.70;;;;;;;8.48;92.75;100212.06;5071664;28;20249;-69
2022/11/15 01:24:40;;;;;;;39.07;24.57;;;;;;;8.37;93.10;100199.97;5071588;28;20675;-68
2022/11/15 01:27:07;;;;;;;38.43;26.53;;;;;;;8.28;93.81;100210.72;5071882;28;20633;-69
2022/11/15 01:29:33;;;;;;;38.03;24.57;;;;;;;8.20;94.07;100208.84;5077923;28;20248;-69
2022/11/15 01:32:02;;;;;;;38.23;24.77;;;;;;;8.17;94.57;100208.38;5074732;28;20195;-68
2022/11/15 01:34:28;;;;;;;34.70;24.07;;;;;;;8.16;93.64;100209.34;5091875;28;20272;-68
2022/11/15 01:36:55;;;;;;;33.60;24.17;;;;;;;8.12;93.66;100215.94;5091708;28;20241;-68
2022/11/15 01:39:22;;;;;;;35.63;24.67;;;;;;;8.07;94.15;100202.38;5091623;28;20228;-68
2022/11/15 01:41:48;;;;;;;36.60;25.97;;;;;;;8.12;94.40;100205.34;5092013;28;20248;-68
2022/11/15 01:44:42;;;;;;;36.27;24.43;;;;;;;8.10;94.39;100202.06;5092210;28;20252;-68
2022/11/15 01:47:15;;;;;;;36.17;24.33;;;;;;;8.10;95.71;100199.41;5092284;28;20266;-68
2022/11/15 01:49:50;;;;;;;40.67;24.70;;;;;;;8.17;95.84;100192.50;5093591;28;20241;-68
2022/11/15 01:52:21;;;;;;;36.20;24.53;;;;;;;8.24;94.96;100193.50;5096100;28;20232;-66
2022/11/15 01:54:50;;;;;;;38.37;24.30;;;;;;;8.24;93.93;100190.84;5095312;28;20294;-67
2022/11/15 01:57:17;;;;;;;37.00;23.67;;;;;;;8.22;94.31;100190.22;5095707;28;20245;-67
2022/11/15 01:59:45;;;;;;;43.77;23.70;;;;;;;8.19;93.77;100191.34;5095262;28;20620;-67
2022/11/15 02:02:14;;;;;;;33.27;23.27;;;;;;;8.14;93.35;100198.09;5095597;28;20252;-67
2022/11/15 02:04:43;;;;;;;34.70;23.00;;;;;;;8.14;94.17;100198.94;5095539;28;20289;-67
2022/11/15 02:07:12;;;;;;;37.10;23.60;;;;;;;8.22;94.78;100196.34;5095188;28;20229;-66
2022/11/15 02:09:39;;;;;;;38.90;24.10;;;;;;;8.28;94.86;100197.47;5095060;28;20248;-67
2022/11/15 02:12:08;;;;;;;36.93;23.83;;;;;;;8.32;94.02;100196.16;5095115;28;20191;-67
2022/11/15 02:14:36;;;;;;;36.43;22.90;;;;;;;8.29;94.15;100191.22;5076040;28;20274;-68
2022/11/15 02:17:14;;;;;;;35.03;22.90;;;;;;;8.28;94.70;100189.53;5074805;28;20260;-67
2022/11/15 02:20:14;;;;;;;33.53;23.07;;;;;;;8.25;93.03;100193.34;5075011;28;20281;-67
2022/11/15 02:22:52;;;;;;;40.20;24.00;;;;;;;8.19;93.56;100185.19;5075058;28;20249;-67
2022/11/15 02:25:40;;;;;;;39.43;25.17;;;;;;;8.26;94.07;100186.25;5074937;28;20245;-67
2022/11/15 02:28:32;;;;;;;35.07;23.20;;;;;;;8.25;93.46;100190.69;5074636;28;20651;-67
2022/11/15 02:31:07;;;;;;;40.60;23.90;;;;;;;8.20;93.67;100187.69;5074856;28;20242;-67
2022/11/15 02:33:39;;;;;;;38.60;24.67;;;;;;;8.17;94.16;100187.19;5075286;28;20187;-67
2022/11/15 02:36:11;;;;;;;38.07;24.73;;;;;;;8.18;94.58;100188.84;5074387;28;20736;-67
2022/11/15 02:38:47;;;;;;;38.50;24.13;;;;;;;8.23;94.51;100182.09;5075405;28;20226;-67
2022/11/15 02:41:17;;;;;;;38.57;23.87;;;;;;;8.26;94.45;100180.94;5075259;28;20189;-67
2022/11/15 02:43:56;;;;;;;38.67;24.17;;;;;;;8.29;93.97;100183.28;5074281;28;20712;-67
2022/11/15 02:49:12;;;;;;;39.37;24.40;;;;;;;8.42;94.37;100170.38;5083068;28;20385;-67
2022/11/15 02:51:40;;;;;;;36.27;24.10;;;;;;;8.49;93.95;100174.03;5090859;28;20242;-67
2022/11/15 02:54:07;;;;;;;39.07;24.33;;;;;;;8.57;94.37;100173.97;5074332;28;20291;-67
2022/11/15 02:56:34;;;;;;;36.70;23.47;;;;;;;8.62;93.39;100177.78;5073942;28;20246;-67
2022/11/15 02:59:16;;;;;;;37.43;23.37;;;;;;;8.72;93.76;100172.31;5073909;28;20200;-67
2022/11/15 03:01:57;;;;;;;33.97;23.40;;;;;;;8.77;92.17;100170.00;5074584;28;20187;-67
2022/11/15 03:04:37;;;;;;;36.43;24.70;;;;;;;8.77;92.80;100170.00;5074366;28;20183;-67
2022/11/15 03:07:12;;;;;;;39.30;25.30;;;;;;;8.80;92.51;100167.00;5074324;28;20187;-67
2022/11/15 03:09:46;;;;;;;38.03;23.77;;;;;;;8.82;91.69;100175.63;5073829;28;20647;-67
2022/11/15 03:12:19;;;;;;;37.40;22.93;;;;;;;8.81;91.72;100172.16;5074168;28;20187;-67
2022/11/15 03:14:55;;;;;;;33.33;22.03;;;;;;;8.85;91.56;100172.63;5073897;28;20245;-66
2022/11/15 03:17:27;;;;;;;35.47;23.30;;;;;;;8.90;92.07;100170.31;5073959;28;20707;-68
2022/11/15 03:19:56;;;;;;;36.70;24.33;;;;;;;8.94;92.49;100171.66;5073452;28;20184;-66
2022/11/15 03:22:26;;;;;;;39.10;23.50;;;;;;;8.93;92.00;100169.97;5074497;28;20249;-66
2022/11/15 03:24:57;;;;;;;37.73;24.77;;;;;;;8.97;91.89;100180.06;5074329;28;20188;-68
2022/11/15 03:27:29;;;;;;;40.13;24.80;;;;;;;8.96;91.38;100167.00;5073537;28;20184;-67
2022/11/15 03:30:00;;;;;;;41.07;23.90;;;;;;;8.92;91.26;100168.31;5083396;28;20179;-66
2022/11/15 03:32:32;;;;;;;33.73;23.07;;;;;;;8.97;92.63;100166.81;5093935;28;20232;-67
2022/11/15 03:35:02;;;;;;;38.07;23.43;;;;;;;8.97;92.48;100168.63;5094064;28;20187;-67
2022/11/15 03:37:35;;;;;;;36.83;23.03;;;;;;;8.90;91.79;100162.38;5093573;28;20712;-67
2022/11/15 03:40:04;;;;;;;37.33;23.10;;;;;;;8.90;91.70;100155.25;5094179;28;20570;-66
2022/11/15 03:42:35;;;;;;;33.97;22.77;;;;;;;8.89;92.61;100156.25;5093976;28;20248;-66
2022/11/15 03:45:09;;;;;;;39.03;23.60;;;;;;;8.90;92.34;100154.44;5093282;28;20183;-66
2022/11/15 03:47:42;;;;;;;37.50;22.80;;;;;;;8.88;92.23;100146.66;5093750;28;20183;-66
2022/11/15 03:50:14;;;;;;;36.63;24.20;;;;;;;8.91;91.58;100148.13;5093536;28;20184;-67
2022/11/15 03:52:42;;;;;;;36.90;22.83;;;;;;;8.81;91.26;100134.22;5081665;28;20184;-66
2022/11/15 03:55:12;;;;;;;37.87;23.97;;;;;;;8.84;91.88;100142.69;5073000;28;20599;-67
2022/11/15 03:57:38;;;;;;;36.03;21.87;;;;;;;8.86;92.25;100137.22;5073537;28;20183;-67
2022/11/15 04:00:06;;;;;;;33.30;23.17;;;;;;;8.85;92.34;100141.69;5072704;28;20813;-67
2022/11/15 04:02:33;;;;;;;33.90;23.03;;;;;;;8.77;92.20;100135.56;5073286;28;20230;-67
2022/11/15 04:05:01;;;;;;;35.30;22.50;;;;;;;8.76;92.59;100136.56;5072589;28;20253;-67
2022/11/15 04:07:28;;;;;;;33.13;21.87;;;;;;;8.70;91.91;100131.97;5072651;28;20733;-67
2022/11/15 04:10:03;;;;;;;35.30;23.13;;;;;;;8.59;91.97;100130.50;5073021;28;20192;-67
2022/11/15 04:12:33;;;;;;;47.63;22.97;;;;;;;8.53;91.70;100122.38;5072438;28;20188;-67
2022/11/15 04:15:10;;;;;;;35.93;22.17;;;;;;;8.48;92.12;100128.16;5072313;28;20188;-66
2022/11/15 04:17:39;;;;;;;35.23;22.77;;;;;;;8.45;91.72;100120.56;5072594;28;20229;-68
2022/11/15 04:25:39;;;;;;;31.83;21.63;;;;;;;8.38;92.43;100113.47;5072711;28;20183;-67
2022/11/15 04:28:06;;;;;;;43.40;24.10;;;;;;;8.34;93.42;100110.28;5072865;28;20192;-68
2022/11/15 04:30:33;;;;;;;36.97;24.60;;;;;;;8.39;93.66;100112.47;5087004;28;20191;-67
2022/11/15 04:32:59;;;;;;;34.70;23.20;;;;;;;8.44;93.61;100115.44;5092492;28;20197;-67
2022/11/15 04:35:27;;;;;;;36.30;23.33;;;;;;;8.44;94.23;100112.78;5092496;28;20703;-68
2022/11/15 04:37:54;;;;;;;40.53;22.57;;;;;;;8.50;92.90;100110.28;5092191;28;20663;-67
2022/11/15 04:40:20;;;;;;;34.07;21.97;;;;;;;8.52;92.38;100120.72;5092251;28;20666;-66
2022/11/15 04:42:47;;;;;;;37.03;23.83;;;;;;;8.50;92.20;100117.41;5092917;28;20225;-66
2022/11/15 04:45:14;;;;;;;41.30;25.60;;;;;;;8.39;92.37;100118.59;5092168;28;20195;-67
2022/11/15 04:47:41;;;;;;;36.63;23.60;;;;;;;8.35;92.25;100116.44;5092241;28;20214;-67
2022/11/15 04:50:08;;;;;;;35.93;23.57;;;;;;;8.27;91.36;100113.78;5092113;28;20191;-66
2022/11/15 04:52:36;;;;;;;39.50;23.80;;;;;;;8.25;93.76;100116.59;5080936;28;20253;-66
2022/11/15 04:55:03;;;;;;;34.53;24.67;;;;;;;8.28;93.11;100116.28;5072503;28;20203;-68
2022/11/15 04:57:30;;;;;;;33.93;22.57;;;;;;;8.25;93.20;100118.44;5054722;28;20188;-67
2022/11/15 04:59:57;;;;;;;34.47;23.23;;;;;;;8.26;92.85;100117.44;5078477;28;20195;-68
2022/11/15 05:02:23;;;;;;;36.47;22.50;;;;;;;8.31;93.79;100121.25;5074140;28;20195;-61
2022/11/15 05:04:49;;;;;;;46.17;25.13;;;;;;;8.55;96.89;100104.50;5071075;28;20614;-66
2022/11/15 05:07:16;;;;;;;36.97;23.10;;;;;;;8.57;92.99;100115.72;5071966;28;20204;-67
2022/11/15 05:09:44;;;;;;;36.03;22.47;;;;;;;8.59;91.90;100108.47;5071719;28;20252;-66
2022/11/15 05:12:10;;;;;;;36.27;23.13;;;;;;;8.54;91.94;100084.31;5071335;28;20202;-67
2022/11/15 05:14:37;;;;;;;34.83;22.67;;;;;;;8.66;91.06;100109.44;5090242;28;20191;-67
2022/11/15 05:17:04;;;;;;;36.33;23.37;;;;;;;8.65;91.24;100118.38;5091364;28;20751;-66
2022/11/15 05:19:30;;;;;;;38.47;23.17;;;;;;;8.68;91.52;100112.75;5092285;28;20187;-65
2022/11/15 05:21:57;;;;;;;34.80;23.90;;;;;;;8.68;91.39;100118.03;5090617;28;20617;-65
2022/11/15 05:24:24;;;;;;;44.03;26.50;;;;;;;8.72;91.45;100114.91;5080097;28;20670;-66
2022/11/15 05:26:52;;;;;;;43.23;27.87;;;;;;;8.72;91.25;100111.41;5083985;28;20672;-66
2022/11/15 05:29:18;;;;;;;39.37;25.20;;;;;;;8.70;90.39;100114.22;5084275;28;20200;-65
2022/11/15 05:31:45;;;;;;;38.90;24.67;;;;;;;8.73;90.33;100110.41;5084200;28;20187;-65
2022/11/15 05:34:12;;;;;;;41.30;22.67;;;;;;;8.70;90.04;100110.78;5084527;28;20252;-66
2022/11/15 05:36:42;;;;;;;47.13;22.43;;;;;;;8.69;90.40;100114.38;5095314;28;20214;-66
2022/11/15 05:39:09;;;;;;;42.90;23.03;;;;;;;8.68;90.38;100110.09;5095854;28;20191;-65
2022/11/15 05:41:40;;;;;;;68.20;24.80;;;;;;;8.63;90.40;100115.06;5095481;28;20674;-65
2022/11/15 05:44:12;;;;;;;42.33;23.53;;;;;;;8.59;90.75;100124.34;5096311;28;20246;-67
2022/11/15 05:46:41;;;;;;;36.50;22.80;;;;;;;8.65;90.99;100118.38;5095374;28;20243;-66
2022/11/15 05:49:12;;;;;;;35.37;22.77;;;;;;;8.68;91.07;100112.75;5090974;28;20191;-65
2022/11/15 05:51:39;;;;;;;33.13;23.33;;;;;;;8.81;90.87;100128.94;5095319;28;20202;-66
2022/11/15 05:54:06;;;;;;;50.57;21.03;;;;;;;8.80;89.50;100127.28;5095596;28;20191;-66
2022/11/15 05:56:33;;;;;;;32.80;19.73;;;;;;;8.67;88.02;100132.28;5094742;28;20702;-66
2022/11/15 05:59:00;;;;;;;38.30;19.60;;;;;;;8.60;88.69;100131.28;5094943;28;20619;-63
2022/11/15 06:01:28;;;;;;;27.00;19.50;;;;;;;8.57;88.00;100140.41;5094992;28;20191;-65
2022/11/15 06:03:55;;;;;;;29.87;20.00;;;;;;;8.49;87.73;100134.31;5095107;28;20529;-68
2022/11/15 06:06:22;;;;;;;35.23;19.90;;;;;;;8.49;88.55;100129.00;5094952;28;20251;-67
2022/11/15 06:08:48;;;;;;;38.37;20.77;;;;;;;8.59;88.64;100134.94;5095215;28;20281;-67
2022/11/15 06:11:15;;;;;;;51.73;25.37;;;;;;;8.78;88.29;100137.25;5095149;28;20191;-68
2022/11/15 06:13:42;;;;;;;31.10;19.03;;;;;;;8.92;88.03;100142.66;5095052;28;20252;-67
2022/11/15 06:16:09;;;;;;;30.57;19.73;;;;;;;9.05;87.12;100137.66;5094583;28;20794;-67
2022/11/15 06:18:37;;;;;;;33.60;19.83;;;;;;;9.15;87.04;100140.13;5094234;28;20222;-65
2022/11/15 06:21:05;;;;;;;77.90;21.67;;;;;;;9.28;87.01;100138.53;5092152;28;20245;-65
2022/11/15 06:23:33;;;;;;;37.97;21.63;;;;;;;9.28;86.46;100143.84;5091740;28;20751;-65
2022/11/15 06:26:01;;;;;;;54.23;22.37;;;;;;;9.37;86.09;100142.00;5093140;28;20252;-67
2022/11/15 06:28:29;;;;;;;51.97;22.80;;;;;;;9.46;86.37;100147.09;5090910;28;20199;-68
2022/11/15 06:30:56;;;;;;;46.23;21.00;;;;;;;9.54;85.65;100143.56;5074814;28;20668;-65
2022/11/15 06:33:22;;;;;;;47.67;21.70;;;;;;;9.61;85.34;100145.34;5071241;28;20221;-69
2022/11/15 06:35:50;;;;;;;36.47;20.37;;;;;;;9.71;85.69;100145.13;5069845;28;20776;-67
2022/11/15 06:38:17;;;;;;;45.83;20.77;;;;;;;9.82;85.01;100142.09;5073478;28;20241;-66
2022/11/15 06:40:44;;;;;;;29.03;19.67;;;;;;;9.97;84.78;100140.34;5079228;28;20195;-66
2022/11/15 06:43:10;;;;;;;37.20;20.87;;;;;;;10.11;85.03;100143.09;5087092;28;20666;-69
2022/11/15 06:45:37;;;;;;;38.90;20.10;;;;;;;10.31;83.31;100141.63;5087776;28;20256;-69
2022/11/15 06:48:04;;;;;;;35.10;18.80;;;;;;;10.54;82.47;100152.22;5094324;28;20239;-69
2022/11/15 06:50:31;;;;;;;33.90;19.17;;;;;;;10.80;81.76;100150.78;5094838;28;20185;-69
2022/11/15 06:53:03;;;;;;;29.37;18.40;;;;;;;11.00;80.11;100151.09;5084379;28;20569;-68
2022/11/15 06:55:30;;;;;;;41.10;19.17;;;;;;;11.13;79.16;100151.25;5085178;28;20191;-67
2022/11/15 06:57:57;;;;;;;35.57;18.87;;;;;;;11.16;77.05;100160.69;5084087;28;20727;-67
2022/11/15 07:00:24;;;;;;;28.83;19.67;;;;;;;11.06;76.95;100152.19;5074266;28;20217;-65
2022/11/15 07:02:51;;;;;;;40.80;21.00;;;;;;;11.13;76.12;100153.91;5090927;28;20188;-62
2022/11/15 07:05:17;;;;;;;32.33;18.70;;;;;;;11.25;76.13;100154.28;5090199;28;20243;-67
2022/11/15 07:07:51;;;;;;;46.50;19.37;;;;;;;11.26;74.78;100155.94;5088994;28;20550;-66
2022/11/15 07:10:19;;;;;;;46.83;20.07;;;;;;;11.29;74.34;100156.41;5090585;28;20242;-63
2022/11/15 07:12:48;;;;;;;43.93;19.00;;;;;;;11.40;74.17;100153.28;5084573;28;20188;-64
2022/11/15 07:15:14;;;;;;;33.40;19.17;;;;;;;11.53;75.04;100153.44;5068968;28;20749;-65
2022/11/15 07:17:41;;;;;;;56.80;20.00;;;;;;;11.75;74.30;100141.84;5032058;28;1107463;-65
2022/11/15 07:20:09;;;;;;;35.20;19.77;;;;;;;11.91;71.89;100148.78;5071736;28;20198;-66
2022/11/15 07:22:36;;;;;;;32.67;19.23;;;;;;;12.04;72.87;100147.09;5079556;28;20196;-65
2022/11/15 07:25:02;;;;;;;41.67;17.83;;;;;;;12.16;71.97;100144.75;5071484;28;20193;-65
2022/11/15 07:27:30;;;;;;;38.47;17.30;;;;;;;12.32;71.87;100145.31;5091162;28;20200;-64
2022/11/15 07:29:57;;;;;;;27.60;16.17;;;;;;;12.49;70.11;100154.69;5082571;28;20555;-66
2022/11/15 07:32:24;;;;;;;36.30;16.13;;;;;;;12.61;69.18;100153.16;5073059;28;20206;-64
2022/11/15 07:34:50;;;;;;;22.77;14.90;;;;;;;12.71;68.71;100158.97;5072828;28;20222;-63
2022/11/15 07:37:17;;;;;;;43.33;17.73;;;;;;;12.78;69.02;100151.03;5072811;28;20774;-65
2022/11/15 07:39:44;;;;;;;27.47;16.70;;;;;;;13.00;68.31;100153.47;5074091;28;20287;-63
2022/11/15 07:44:56;;;;;;;12.73;11.00;;;;;;;14.51;79.02;100113.75;5092967;28;20181;-62
2022/11/15 07:47:23;;;;;;;27.27;15.87;;;;;;;15.44;69.13;100150.84;5091515;28;20206;-63
2022/11/15 07:49:50;;;;;;;15.00;12.30;;;;;;;16.25;65.03;100162.63;5091129;28;20230;-65
2022/11/15 07:52:16;;;;;;;22.63;12.83;;;;;;;16.89;62.34;100141.69;5090855;28;20191;-63
2022/11/15 07:54:43;;;;;;;20.67;13.40;;;;;;;17.59;58.00;100151.91;5091330;28;20199;-66
2022/11/15 07:57:10;;;;;;;21.37;15.17;;;;;;;18.07;53.85;100141.97;5088905;28;20215;-64
2022/11/15 07:59:36;;;;;;;18.83;13.40;;;;;;;18.49;54.03;100132.88;5090626;28;20663;-63
2022/11/15 08:02:04;;;;;;;20.13;13.90;;;;;;;18.82;53.91;100135.84;5091585;28;20196;-64
2022/11/15 08:04:31;;;;;;;19.93;14.53;;;;;;;19.12;50.72;100141.94;5093237;28;20195;-63
2022/11/15 08:06:58;;;;;;;22.63;16.17;;;;;;;19.37;45.66;100132.56;5089926;28;20192;-66
2022/11/15 08:09:25;;;;;;;23.70;16.03;;;;;;;19.15;45.11;100136.09;5082166;28;20257;-65
2022/11/15 08:11:52;;;;;;;24.53;18.37;;;;;;;18.84;45.60;100136.44;5088050;28;20284;-67
2022/11/15 08:14:18;;;;;;;25.40;16.63;;;;;;;18.65;47.30;100124.13;5075661;28;20246;-66
2022/11/15 08:16:45;;;;;;;21.67;17.70;;;;;;;18.55;47.83;100126.59;5072060;28;20676;-64
2022/11/15 08:19:13;;;;;;;31.33;20.17;;;;;;;18.36;47.89;100120.47;5072495;28;20185;-66
2022/11/15 08:21:40;;;;;;;22.67;17.23;;;;;;;18.25;47.56;100117.72;5072094;28;20652;-65
2022/11/15 08:24:10;;;;;;;21.80;16.33;;;;;;;18.45;53.15;100112.88;5072244;28;20196;-61
2022/11/15 08:26:36;;;;;;;22.93;16.63;;;;;;;18.93;51.38;100121.56;5071929;28;20219;-61
2022/11/15 08:29:03;;;;;;;22.60;14.53;;;;;;;19.33;49.99;100111.72;5073958;28;20199;-61
2022/11/15 08:31:30;;;;;;;28.03;16.67;;;;;;;19.52;45.86;100115.91;5092155;28;20672;-61
2022/11/15 08:33:57;;;;;;;26.50;17.17;;;;;;;19.57;47.52;100118.69;5092617;28;20196;-63
2022/11/15 08:36:25;;;;;;;30.77;17.90;;;;;;;19.91;45.73;100115.88;5090036;28;20238;-69
2022/11/15 08:38:51;;;;;;;37.33;18.63;;;;;;;20.04;44.29;100125.53;5091837;28;20196;-66
2022/11/15 08:41:26;;;;;;;26.37;17.63;;;;;;;20.08;44.33;100119.44;5091553;28;20192;-67
2022/11/15 08:43:53;;;;;;;30.90;16.80;;;;;;;20.09;44.36;100112.16;5091756;28;20237;-63
2022/11/15 08:46:19;;;;;;;38.77;18.00;;;;;;;20.28;44.13;100109.03;5092595;28;20195;-68
2022/11/15 08:48:46;;;;;;;26.13;18.00;;;;;;;20.03;44.12;100105.03;5091993;28;20196;-68
2022/11/15 08:51:13;;;;;;;28.27;18.27;;;;;;;19.67;45.95;100108.94;5092643;28;20189;-68
2022/11/15 08:53:41;;;;;;;27.83;18.57;;;;;;;19.84;49.19;100092.78;5071764;28;20200;-64
2022/11/15 08:56:09;;;;;;;29.00;17.87;;;;;;;20.05;45.86;100100.22;5080001;28;20276;-63
2022/11/15 08:58:35;;;;;;;46.87;19.80;;;;;;;19.80;47.64;100091.63;5092323;28;20189;-64
2022/11/15 09:01:02;;;;;;;29.90;19.27;;;;;;;19.59;46.55;100084.22;5092071;28;20253;-63
2022/11/15 09:03:29;;;;;;;29.43;18.90;;;;;;;19.30;47.28;100090.63;5091688;28;20658;-64
2022/11/15 09:05:56;;;;;;;54.20;20.53;;;;;;;18.87;48.93;100072.16;5091808;28;20196;-65
2022/11/15 09:08:23;;;;;;;25.47;18.27;;;;;;;18.77;49.25;100063.88;5091773;28;20198;-65
2022/11/15 09:10:51;;;;;;;29.80;19.97;;;;;;;18.72;50.00;100062.94;5091969;28;20237;-66
2022/11/15 09:13:18;;;;;;;33.33;20.33;;;;;;;18.87;50.45;100055.22;5083700;28;20623;-66
2022/11/15 09:15:45;;;;;;;66.43;55.90;;;;;;;18.81;50.82;100048.06;5070204;28;20192;-61
2022/11/15 09:18:12;;;;;;;164.17;96.67;;;;;;;19.02;53.77;100044.75;5071469;28;20239;-63
2022/11/15 09:20:38;;;;;;;32.87;20.60;;;;;;;19.23;49.89;100041.41;5068073;28;20191;-67
2022/11/15 09:23:05;;;;;;;26.03;20.70;;;;;;;19.33;49.61;100031.72;5068804;28;20267;-67
2022/11/15 09:25:32;;;;;;;28.67;19.87;;;;;;;19.24;50.44;100026.94;5068777;28;20253;-65
2022/11/15 09:28:00;;;;;;;27.10;20.03;;;;;;;19.19;49.92;100024.94;5066821;28;20192;-65
2022/11/15 09:30:27;;;;;;;36.90;20.53;;;;;;;19.15;49.92;100023.75;5081102;28;20882;-65
2022/11/15 09:32:54;;;;;;;26.77;19.87;;;;;;;18.82;50.05;100018.22;5087401;28;20191;-66
2022/11/15 09:35:20;;;;;;;25.87;19.70;;;;;;;18.58;51.79;100005.84;5087725;28;20196;-68
2022/11/15 09:37:47;;;;;;;26.50;19.63;;;;;;;18.41;52.06;100014.84;5091151;28;20763;-67
2022/11/15 09:40:19;;;;;;;52.53;21.73;;;;;;;18.46;52.64;100006.91;5073528;28;20570;-68
2022/11/15 09:43:09;;;;;;;31.70;20.90;;;;;;;18.70;51.95;99997.78;5091946;28;20610;-67
2022/11/15 09:45:43;;;;;;;22.97;18.33;;;;;;;18.94;52.58;99999.34;5092017;28;20196;-68
2022/11/15 09:48:29;;;;;;;29.47;19.93;;;;;;;19.15;50.05;99998.72;5094201;28;20248;-65
2022/11/15 09:50:59;;;;;;;36.67;20.07;;;;;;;19.11;50.12;99994.88;5111788;28;20241;-66
2022/11/15 09:53:30;;;;;;;23.17;19.77;;;;;;;19.19;50.22;99999.88;5093047;28;20278;-65
2022/11/15 09:56:01;;;;;;;24.00;20.13;;;;;;;19.33;49.39;99998.56;5091246;28;20181;-66
2022/11/15 09:58:37;;;;;;;22.67;19.70;;;;;;;19.40;49.21;99999.25;5087730;28;20218;-65
2022/11/15 10:01:08;;;;;;;35.57;20.67;;;;;;;19.30;49.12;99988.25;5081285;28;20200;-66
2022/11/15 10:03:38;;;;;;;23.33;19.00;;;;;;;19.03;49.56;99987.16;5069567;28;20606;-65
2022/11/15 10:06:07;;;;;;;24.50;19.73;;;;;;;18.82;50.15;99979.69;5071107;28;20200;-66
2022/11/15 10:08:51;;;;;;;26.83;19.37;;;;;;;18.92;50.01;99966.47;5071124;28;20279;-64
2022/11/15 10:11:21;;;;;;;34.30;19.67;;;;;;;19.08;49.91;99971.09;5073011;28;20223;-65
2022/11/15 10:13:52;;;;;;;26.10;19.57;;;;;;;19.22;49.63;99967.91;5087294;28;20263;-65
2022/11/15 10:16:40;;;;;;;23.60;19.43;;;;;;;19.38;49.17;99964.47;5094833;28;20549;-65
2022/11/15 10:19:16;;;;;;;28.17;20.23;;;;;;;19.45;49.46;99959.72;5094685;28;20187;-66
2022/11/15 10:21:57;;;;;;;22.30;18.90;;;;;;;19.41;48.96;99952.38;5094846;28;20191;-66
2022/11/15 10:24:28;;;;;;;26.67;19.60;;;;;;;19.05;50.26;99950.03;5094655;28;20187;-66
2022/11/15 10:26:56;;;;;;;23.50;19.93;;;;;;;19.06;50.62;99954.34;5094282;28;20187;-66
2022/11/15 10:29:25;;;;;;;29.47;19.07;;;;;;;19.04;50.53;99951.09;5090246;28;20188;-67
2022/11/15 10:31:52;;;;;;;23.60;18.63;;;;;;;18.98;50.12;99946.66;5074379;28;20196;-65
2022/11/15 10:34:21;;;;;;;34.43;20.53;;;;;;;18.48;50.98;99941.06;5074128;28;20719;-66
2022/11/15 10:36:55;;;;;;;22.73;19.93;;;;;;;18.48;50.89;99941.06;5073949;28;20191;-66
2022/11/15 10:39:22;;;;;;;38.60;20.50;;;;;;;18.62;51.24;99933.53;5074690;28;20257;-64
2022/11/15 10:41:50;;;;;;;39.30;20.23;;;;;;;18.86;51.31;99924.34;5074308;28;20262;-64
2022/11/15 10:44:43;;;;;;;25.63;19.30;;;;;;;18.87;49.33;99918.72;5074067;28;20193;-68
2022/11/15 10:47:34;;;;;;;31.13;19.23;;;;;;;18.94;48.86;99914.03;5073892;28;20223;-66
2022/11/15 10:50:08;;;;;;;25.03;20.37;;;;;;;18.89;50.25;99911.22;5092194;28;20192;-66
2022/11/15 10:52:37;;;;;;;23.90;19.73;;;;;;;18.74;50.18;99915.50;5093315;28;20625;-66
2022/11/15 10:55:21;;;;;;;28.40;20.10;;;;;;;18.49;51.06;99915.78;5092995;28;20245;-66
2022/11/15 10:57:51;;;;;;;26.17;20.93;;;;;;;18.48;51.20;99907.94;5072884;28;20208;-64
2022/11/15 11:00:33;;;;;;;27.13;20.13;;;;;;;18.44;51.74;99901.38;5073872;28;20220;-62
2022/11/15 11:03:02;;;;;;;25.03;20.20;;;;;;;18.36;52.00;99893.69;5074064;28;20188;-62
2022/11/15 11:05:32;;;;;;;26.93;20.63;;;;;;;18.37;51.15;99896.16;5073919;28;20188;-63
2022/11/15 11:08:02;;;;;;;27.43;21.47;;;;;;;18.12;51.71;99892.03;5073678;28;20219;-66
2022/11/15 11:10:29;;;;;;;29.20;22.83;;;;;;;17.78;53.08;99874.03;5073782;28;20659;-68
2022/11/15 11:12:56;;;;;;;29.73;22.87;;;;;;;17.69;53.15;99875.44;5078588;28;20187;-65
2022/11/15 11:15:27;;;;;;;28.30;20.43;;;;;;;17.45;53.73;99871.09;5093679;28;20217;-65
2022/11/15 11:18:09;;;;;;;31.27;21.97;;;;;;;17.51;54.04;99872.88;5094446;28;20279;-64
2022/11/15 11:20:39;;;;;;;30.33;20.80;;;;;;;17.61;53.46;99867.72;5093921;28;20550;-64
2022/11/15 11:23:23;;;;;;;30.23;21.97;;;;;;;17.70;53.54;99861.78;5092739;28;20183;-65
2022/11/15 11:26:01;;;;;;;29.03;21.67;;;;;;;17.66;53.70;99855.25;5091617;28;20188;-65
2022/11/15 11:28:39;;;;;;;34.13;22.17;;;;;;;17.67;54.24;99847.97;5073486;28;20194;-65
2022/11/15 11:31:21;;;;;;;25.37;21.13;;;;;;;17.80;53.88;99851.25;5091784;28;20279;-65
2022/11/15 11:33:57;;;;;;;33.27;23.00;;;;;;;17.63;53.51;99841.44;5080860;28;20184;-64
2022/11/15 11:36:28;;;;;;;33.53;23.70;;;;;;;17.70;53.63;99834.09;5073259;28;20245;-67